Time;durP1;ratioP1;P1;durP2;ratioP2;P2;SDS_P1;SDS_P2;PMS_P1;PMS_P2;Temp;Humidity;BMP_temperature;BMP_pressure;BME280_temperature;BME280_humidity;BME280_pressure;Samples;Min_cycle;Max_cycle;Signal;HPM_P1;HPM_P2
2023/12/11 00:01:35;;;;;;;26.45;4.90;;;10.40;73.50;;;;;;5051485;28;20472;-74
2023/12/11 00:04:01;;;;;;;29.13;5.22;;;10.40;73.60;;;;;;5051026;28;20397;-73
2023/12/11 00:06:26;;;;;;;35.17;5.80;;;10.40;73.50;;;;;;5051318;28;20842;-72
2023/12/11 00:08:52;;;;;;;31.20;6.03;;;10.40;73.50;;;;;;5051281;28;20377;-74
2023/12/11 00:11:17;;;;;;;28.52;6.10;;;10.30;73.40;;;;;;5051415;28;20394;-73
2023/12/11 00:13:43;;;;;;;30.37;5.53;;;10.30;72.80;;;;;;5051253;28;20396;-73
2023/12/11 00:16:08;;;;;;;31.20;5.20;;;10.30;73.40;;;;;;5051118;28;21114;-72
2023/12/11 00:18:34;;;;;;;27.20;5.90;;;10.30;73.90;;;;;;5050667;28;20409;-74
2023/12/11 00:21:00;;;;;;;30.40;6.10;;;10.10;75.60;;;;;;5051199;28;20818;-74
2023/12/11 00:23:26;;;;;;;25.25;5.95;;;10.10;76.00;;;;;;5051021;28;20843;-74
2023/12/11 00:25:52;;;;;;;32.83;5.97;;;10.10;77.00;;;;;;5051005;28;20476;-73
2023/12/11 00:28:18;;;;;;;28.40;6.80;;;10.20;76.40;;;;;;5050851;28;20420;-73
2023/12/11 00:30:43;;;;;;;40.50;6.10;;;10.30;75.10;;;;;;5051545;28;20580;-74
2023/12/11 00:33:09;;;;;;;31.75;5.82;;;10.40;74.50;;;;;;5051062;28;20443;-73
2023/12/11 00:35:34;;;;;;;34.85;6.82;;;10.50;73.20;;;;;;5050922;28;20381;-72
2023/12/11 00:38:00;;;;;;;30.00;6.38;;;10.50;72.60;;;;;;5050857;28;20378;-74
2023/12/11 00:40:25;;;;;;;36.87;6.50;;;10.50;72.90;;;;;;5050625;28;20393;-74
2023/12/11 00:42:51;;;;;;;36.07;6.83;;;10.60;72.20;;;;;;5050327;28;20417;-74
2023/12/11 00:45:16;;;;;;;32.87;5.93;;;10.60;71.90;;;;;;5051182;28;20756;-72
2023/12/11 00:47:42;;;;;;;34.57;6.13;;;10.60;71.90;;;;;;5050940;28;20393;-73
2023/12/11 00:50:08;;;;;;;43.78;6.30;;;10.60;72.40;;;;;;5050553;28;20393;-74
2023/12/11 00:52:34;;;;;;;22.08;5.65;;;10.60;72.40;;;;;;5050568;28;20426;-73
2023/12/11 00:54:59;;;;;;;31.47;6.20;;;10.50;72.40;;;;;;5050800;28;20499;-73
2023/12/11 00:57:25;;;;;;;30.20;5.50;;;10.40;73.60;;;;;;5050723;28;20425;-73
2023/12/11 00:59:51;;;;;;;28.80;5.30;;;10.30;75.10;;;;;;5050399;28;20393;-73
2023/12/11 01:02:17;;;;;;;32.63;6.03;;;10.30;75.80;;;;;;5050513;28;20397;-73
2023/12/11 01:04:44;;;;;;;30.77;6.10;;;10.20;76.60;;;;;;5050465;28;20497;-73
2023/12/11 01:07:10;;;;;;;36.70;6.40;;;10.20;76.90;;;;;;5049794;28;20457;-73
2023/12/11 01:09:36;;;;;;;37.17;5.85;;;10.20;77.70;;;;;;5050095;28;20382;-73
2023/12/11 01:12:01;;;;;;;37.55;7.03;;;10.20;77.80;;;;;;5050133;28;20731;-72
2023/12/11 01:14:27;;;;;;;31.05;6.05;;;10.20;76.60;;;;;;5050105;28;20384;-72
2023/12/11 01:16:53;;;;;;;38.77;7.80;;;10.20;76.10;;;;;;5050268;28;20381;-73
2023/12/11 01:19:18;;;;;;;35.97;7.40;;;10.20;75.90;;;;;;5048449;28;20398;-74
2023/12/11 01:21:45;;;;;;;29.77;5.80;;;10.30;74.60;;;;;;5050018;28;20835;-74
2023/12/11 01:24:11;;;;;;;45.25;7.10;;;10.30;74.50;;;;;;5049809;28;20401;-73
2023/12/11 01:26:37;;;;;;;32.28;6.75;;;10.20;75.00;;;;;;5050091;28;20442;-73
2023/12/11 01:29:02;;;;;;;43.83;7.32;;;10.30;75.00;;;;;;5049721;28;20451;-73
2023/12/11 01:31:28;;;;;;;40.60;6.07;;;10.30;74.50;;;;;;5049875;28;20878;-74
2023/12/11 01:33:53;;;;;;;26.63;6.10;;;10.30;74.00;;;;;;5049833;28;20867;-74
2023/12/11 01:36:19;;;;;;;37.30;6.32;;;10.40;73.60;;;;;;5049842;28;20883;-74
2023/12/11 01:38:45;;;;;;;42.20;7.03;;;10.50;71.60;;;;;;5050015;28;20748;-73
2023/12/11 01:41:10;;;;;;;46.67;6.77;;;10.60;70.70;;;;;;5049926;28;20859;-71
2023/12/11 01:43:36;;;;;;;35.47;5.87;;;10.70;70.10;;;;;;5049970;28;20953;-73
2023/12/11 01:46:03;;;;;;;27.42;6.15;;;10.80;68.10;;;;;;5050040;28;20784;-72
2023/12/11 01:48:30;;;;;;;34.60;6.40;;;10.80;67.60;;;;;;5049776;28;20377;-72
2023/12/11 01:50:55;;;;;;;36.47;6.63;;;10.80;67.20;;;;;;5056246;28;20377;-73
2023/12/11 01:53:22;;;;;;;40.90;7.20;;;10.90;66.90;;;;;;5065077;28;20477;-74
2023/12/11 01:55:48;;;;;;;36.80;6.13;;;10.80;65.70;;;;;;5050510;28;20394;-74
2023/12/11 01:58:15;;;;;;;47.70;6.40;;;10.90;65.60;;;;;;5049867;28;20421;-74
2023/12/11 02:00:41;;;;;;;35.15;6.20;;;10.80;65.40;;;;;;5051092;28;20439;-74
2023/12/11 02:03:07;;;;;;;32.10;6.47;;;10.70;66.30;;;;;;5052153;28;20455;-73
2023/12/11 02:05:32;;;;;;;41.10;7.30;;;10.80;66.00;;;;;;5050393;28;20450;-73
2023/12/11 02:07:58;;;;;;;32.33;6.60;;;10.70;65.90;;;;;;5050203;28;20420;-73
2023/12/11 02:10:24;;;;;;;31.60;5.72;;;10.70;67.00;;;;;;5049447;28;20385;-73
2023/12/11 02:12:50;;;;;;;30.95;6.68;;;10.70;66.10;;;;;;5050925;28;20429;-73
2023/12/11 02:15:39;;;;;;;26.17;6.07;;;10.70;65.60;;;;;;5053319;28;20454;-73
2023/12/11 02:18:04;;;;;;;37.15;6.32;;;10.70;65.10;;;;;;5053210;28;20393;-72
2023/12/11 02:20:30;;;;;;;38.13;6.20;;;10.70;64.90;;;;;;5081902;22;20432;-72
2023/12/11 02:23:03;;;;;;;36.65;5.90;;;10.70;65.10;;;;;;5072701;28;20842;-70
2023/12/11 02:25:31;;;;;;;35.13;6.15;;;10.60;64.90;;;;;;5073525;28;20411;-70
2023/12/11 02:27:57;;;;;;;43.42;7.10;;;10.70;64.20;;;;;;5072487;28;20407;-69
2023/12/11 02:30:23;;;;;;;31.85;5.40;;;10.80;62.30;;;;;;5072451;28;20441;-69
2023/12/11 02:32:51;;;;;;;30.40;5.72;;;11.00;59.90;;;;;;5073010;28;20388;-70
2023/12/11 02:35:17;;;;;;;35.97;6.70;;;11.10;59.80;;;;;;5073057;28;20394;-70
2023/12/11 02:37:42;;;;;;;36.40;6.53;;;11.10;58.90;;;;;;5078357;28;20478;-71
2023/12/11 02:40:08;;;;;;;32.73;6.10;;;11.10;58.90;;;;;;5081271;28;20383;-71
2023/12/11 02:42:34;;;;;;;30.00;5.80;;;11.10;59.30;;;;;;5081568;28;20422;-71
2023/12/11 02:44:59;;;;;;;37.30;6.10;;;11.10;59.30;;;;;;5082685;28;20735;-70
2023/12/11 02:47:25;;;;;;;31.50;5.90;;;11.20;58.40;;;;;;5072592;28;20902;-70
2023/12/11 02:49:50;;;;;;;36.17;6.40;;;11.20;57.40;;;;;;5072485;28;20425;-70
2023/12/11 02:52:16;;;;;;;38.90;6.43;;;11.20;57.30;;;;;;5072319;28;20375;-71
2023/12/11 02:54:41;;;;;;;29.60;5.97;;;11.20;56.60;;;;;;5071064;28;20471;-69
2023/12/11 02:57:07;;;;;;;24.83;6.10;;;11.20;56.50;;;;;;5072250;28;20412;-70
2023/12/11 02:59:32;;;;;;;38.50;5.90;;;11.00;57.80;;;;;;5072240;28;20404;-71
2023/12/11 03:01:58;;;;;;;31.63;5.68;;;10.90;58.10;;;;;;5072313;28;20384;-70
2023/12/11 03:04:23;;;;;;;36.40;6.30;;;10.90;59.40;;;;;;5071971;28;20408;-70
2023/12/11 03:06:51;;;;;;;40.40;6.73;;;10.80;60.00;;;;;;5072182;28;20392;-70
2023/12/11 03:09:16;;;;;;;36.72;6.47;;;10.70;61.00;;;;;;5072705;28;20459;-70
2023/12/11 03:11:42;;;;;;;31.73;6.30;;;10.60;61.80;;;;;;5072599;28;20393;-70
2023/12/11 03:14:08;;;;;;;34.72;5.65;;;10.70;61.90;;;;;;5072173;28;20388;-70
2023/12/11 03:16:33;;;;;;;34.53;6.53;;;10.80;60.00;;;;;;5072291;28;20391;-71
2023/12/11 03:18:59;;;;;;;32.58;5.25;;;10.90;59.60;;;;;;5071895;28;20403;-70
2023/12/11 03:21:24;;;;;;;34.20;6.30;;;11.00;64.00;;;;;;5071993;28;20829;-70
2023/12/11 03:23:50;;;;;;;29.43;6.53;;;11.00;66.60;;;;;;5071532;28;20435;-71
2023/12/11 03:26:16;;;;;;;32.40;5.80;;;10.90;69.00;;;;;;5071669;28;20814;-70
2023/12/11 03:28:41;;;;;;;32.50;6.10;;;10.80;68.30;;;;;;5072015;28;20384;-70
2023/12/11 03:31:07;;;;;;;31.07;5.60;;;10.90;65.10;;;;;;5071427;28;20439;-71
2023/12/11 03:33:32;;;;;;;40.40;6.80;;;10.80;65.50;;;;;;5071594;28;20418;-70
2023/12/11 03:35:58;;;;;;;34.33;6.35;;;10.70;65.60;;;;;;5072032;28;20380;-71
2023/12/11 03:38:23;;;;;;;28.60;5.60;;;10.70;64.70;;;;;;5071709;28;20443;-70
2023/12/11 03:40:49;;;;;;;35.20;6.23;;;10.80;63.60;;;;;;5071443;28;20391;-70
2023/12/11 03:43:14;;;;;;;37.47;6.57;;;10.90;63.10;;;;;;5071045;28;20465;-71
2023/12/11 03:45:40;;;;;;;36.92;6.05;;;10.90;63.30;;;;;;5072051;28;20424;-71
2023/12/11 03:48:05;;;;;;;32.78;6.47;;;10.90;61.70;;;;;;5070972;28;20449;-70
2023/12/11 03:50:31;;;;;;;29.23;6.53;;;10.90;61.60;;;;;;5070965;28;20380;-70
2023/12/11 03:52:56;;;;;;;36.67;6.33;;;11.00;59.70;;;;;;5070787;28;20387;-70
2023/12/11 03:55:22;;;;;;;32.73;6.20;;;11.10;58.00;;;;;;5070718;28;20388;-70
2023/12/11 03:57:47;;;;;;;32.33;5.60;;;11.10;56.80;;;;;;5070584;28;20403;-70
2023/12/11 04:00:14;;;;;;;30.27;5.72;;;11.30;55.60;;;;;;5069345;28;20388;-71
2023/12/11 04:02:39;;;;;;;35.97;5.78;;;11.30;54.30;;;;;;5070546;28;20411;-71
2023/12/11 04:05:05;;;;;;;29.07;4.90;;;11.40;54.30;;;;;;5070728;28;20830;-70
2023/12/11 04:07:31;;;;;;;26.70;5.83;;;11.40;52.80;;;;;;5070707;28;20394;-70
2023/12/11 04:09:56;;;;;;;34.53;5.50;;;11.40;52.50;;;;;;5070454;28;20394;-70
2023/12/11 04:12:22;;;;;;;31.90;5.40;;;11.40;53.70;;;;;;5070490;28;20387;-70
2023/12/11 04:14:48;;;;;;;27.95;5.25;;;11.40;60.30;;;;;;5070480;28;20390;-70
2023/12/11 04:17:13;;;;;;;31.60;5.20;;;11.30;63.40;;;;;;5070790;28;20380;-71
2023/12/11 04:19:39;;;;;;;28.00;5.53;;;11.10;67.00;;;;;;5070683;28;20470;-70
2023/12/11 04:22:04;;;;;;;35.80;5.40;;;11.00;68.00;;;;;;5071560;28;20387;-70
2023/12/11 04:24:30;;;;;;;40.45;6.60;;;10.90;69.30;;;;;;5071496;28;20443;-70
2023/12/11 04:26:55;;;;;;;29.80;6.07;;;10.90;68.80;;;;;;5071250;28;20383;-70
2023/12/11 04:29:21;;;;;;;33.27;5.77;;;10.80;73.40;;;;;;5069771;28;20449;-70
2023/12/11 04:31:46;;;;;;;28.23;5.90;;;10.70;74.10;;;;;;5068286;28;20484;-70
2023/12/11 04:34:12;;;;;;;26.90;6.03;;;10.60;74.30;;;;;;5061189;28;20831;-70
2023/12/11 04:36:41;;;;;;;32.30;5.50;;;10.70;73.70;;;;;;5049658;28;20386;-69
2023/12/11 04:39:07;;;;;;;24.03;5.27;;;10.70;70.90;;;;;;5057817;28;20450;-70
2023/12/11 04:41:32;;;;;;;28.90;6.07;;;10.90;65.00;;;;;;5054563;28;20767;-71
2023/12/11 04:43:58;;;;;;;28.23;5.63;;;10.90;64.10;;;;;;5055497;28;20422;-73
2023/12/11 04:46:23;;;;;;;29.90;5.38;;;11.00;69.20;;;;;;5058179;28;20799;-70
2023/12/11 04:48:49;;;;;;;30.85;5.35;;;10.90;68.10;;;;;;5065223;28;20427;-70
2023/12/11 04:51:14;;;;;;;27.70;5.43;;;10.90;68.90;;;;;;5050230;28;20468;-70
2023/12/11 04:53:40;;;;;;;27.33;5.63;;;10.80;70.00;;;;;;5050056;28;20478;-70
2023/12/11 04:56:07;;;;;;;31.07;5.27;;;10.80;71.10;;;;;;5049206;28;20444;-73
2023/12/11 04:58:32;;;;;;;32.63;5.53;;;10.80;68.80;;;;;;5060972;28;20817;-72
2023/12/11 05:00:58;;;;;;;30.30;5.68;;;10.80;67.90;;;;;;5050454;28;20381;-71
2023/12/11 05:03:23;;;;;;;32.20;5.82;;;10.80;69.20;;;;;;5049774;28;20397;-72
2023/12/11 05:05:49;;;;;;;31.67;5.45;;;10.80;68.10;;;;;;5058690;28;20449;-71
2023/12/11 05:08:14;;;;;;;33.70;4.97;;;10.90;66.90;;;;;;5069515;28;20425;-71
2023/12/11 05:10:40;;;;;;;32.97;5.43;;;10.90;66.90;;;;;;5069833;28;20391;-71
2023/12/11 05:13:05;;;;;;;28.50;5.43;;;11.00;65.60;;;;;;5069758;28;20754;-71
2023/12/11 05:15:31;;;;;;;32.80;5.13;;;10.90;68.30;;;;;;5069945;28;20920;-71
2023/12/11 05:17:56;;;;;;;29.65;5.53;;;10.80;68.80;;;;;;5069937;28;20387;-72
2023/12/11 05:20:22;;;;;;;24.55;5.63;;;10.90;67.10;;;;;;5069704;28;20460;-71
2023/12/11 05:22:47;;;;;;;24.80;4.90;;;10.80;67.60;;;;;;5070552;28;20411;-71
2023/12/11 05:25:13;;;;;;;23.17;5.00;;;10.80;67.70;;;;;;5071043;28;20379;-71
2023/12/11 05:27:39;;;;;;;24.83;5.10;;;10.70;69.70;;;;;;5071938;28;20406;-72
2023/12/11 05:30:06;;;;;;;27.90;5.27;;;10.50;71.80;;;;;;5070905;28;20858;-71
2023/12/11 05:32:31;;;;;;;28.38;5.40;;;10.40;73.70;;;;;;5069644;28;20378;-71
2023/12/11 05:34:57;;;;;;;30.77;5.60;;;10.30;75.00;;;;;;5069919;28;20388;-72
2023/12/11 05:37:23;;;;;;;29.90;5.40;;;10.20;75.00;;;;;;5069603;28;20391;-71
2023/12/11 05:39:48;;;;;;;28.07;5.70;;;10.20;74.80;;;;;;5069699;28;20567;-72
2023/12/11 05:42:14;;;;;;;29.90;5.10;;;10.20;75.30;;;;;;5069550;28;20456;-72
2023/12/11 05:44:39;;;;;;;33.90;5.82;;;10.10;76.50;;;;;;5069688;28;20494;-72
2023/12/11 05:47:05;;;;;;;27.52;5.78;;;10.10;76.50;;;;;;5069683;28;20390;-71
2023/12/11 05:49:30;;;;;;;28.02;5.10;;;10.10;75.50;;;;;;5073167;28;20870;-70
2023/12/11 05:51:56;;;;;;;32.43;5.40;;;10.00;74.80;;;;;;5073402;28;20368;-70
2023/12/11 05:54:22;;;;;;;23.95;4.97;;;10.00;74.00;;;;;;5073194;28;20384;-70
2023/12/11 05:56:47;;;;;;;34.40;6.03;;;10.10;73.00;;;;;;5073419;28;20801;-71
2023/12/11 05:59:13;;;;;;;27.43;4.80;;;10.00;74.00;;;;;;5073383;28;20553;-71
2023/12/11 06:01:38;;;;;;;21.57;4.17;;;9.90;74.80;;;;;;5073139;28;20391;-71
2023/12/11 06:04:04;;;;;;;24.27;4.80;;;9.90;74.90;;;;;;5072385;28;20486;-71
2023/12/11 06:06:29;;;;;;;21.80;4.93;;;10.00;72.60;;;;;;5072428;28;20958;-71
2023/12/11 06:08:55;;;;;;;12.25;3.65;;;10.10;72.50;;;;;;5072338;28;20861;-71
2023/12/11 06:11:20;;;;;;;19.65;4.05;;;10.10;71.80;;;;;;5072916;28;20384;-71
2023/12/11 06:13:46;;;;;;;21.70;3.90;;;10.00;73.10;;;;;;5072791;28;20457;-71
2023/12/11 06:16:13;;;;;;;20.10;4.03;;;9.90;74.50;;;;;;5074169;28;20422;-71
2023/12/11 06:18:39;;;;;;;15.85;3.92;;;10.00;74.90;;;;;;5073141;28;20383;-71
2023/12/11 06:21:04;;;;;;;18.80;4.00;;;10.10;74.00;;;;;;5072554;28;20402;-71
2023/12/11 06:23:30;;;;;;;20.92;4.22;;;10.30;71.90;;;;;;5072204;28;20498;-71
2023/12/11 06:25:56;;;;;;;19.42;4.00;;;10.40;71.20;;;;;;5072490;28;20391;-71
2023/12/11 06:28:21;;;;;;;18.13;4.25;;;10.50;70.10;;;;;;5072434;28;20387;-72
2023/12/11 06:30:47;;;;;;;25.40;4.70;;;10.50;70.00;;;;;;5072967;28;20451;-71
2023/12/11 06:33:12;;;;;;;21.80;4.87;;;10.60;68.30;;;;;;5072494;28;20387;-71
2023/12/11 06:35:38;;;;;;;23.50;4.57;;;10.60;68.70;;;;;;5072407;28;20939;-70
2023/12/11 06:38:03;;;;;;;24.90;5.50;;;10.70;66.40;;;;;;5072544;28;20391;-71
2023/12/11 06:40:29;;;;;;;21.40;4.95;;;10.70;66.30;;;;;;5072161;28;20749;-72
2023/12/11 06:42:54;;;;;;;25.23;5.30;;;10.70;66.60;;;;;;5072319;28;20487;-72
2023/12/11 06:45:20;;;;;;;22.45;5.05;;;10.70;65.40;;;;;;5072344;28;20807;-72
2023/12/11 06:47:46;;;;;;;31.10;5.40;;;10.80;64.40;;;;;;5073252;28;20452;-71
2023/12/11 06:50:12;;;;;;;23.73;4.97;;;10.80;63.30;;;;;;5072331;28;20422;-71
2023/12/11 06:52:38;;;;;;;25.52;4.70;;;10.90;62.70;;;;;;5070687;28;20383;-72
2023/12/11 06:55:04;;;;;;;22.63;4.40;;;11.00;59.80;;;;;;5071333;28;20880;-73
2023/12/11 06:57:30;;;;;;;21.70;4.72;;;11.00;61.70;;;;;;5070625;28;20394;-71
2023/12/11 06:59:55;;;;;;;24.33;4.78;;;11.00;59.80;;;;;;5071834;28;20375;-72
2023/12/11 07:02:21;;;;;;;22.33;4.80;;;11.00;59.40;;;;;;5071812;28;20400;-71
2023/12/11 07:04:46;;;;;;;23.77;4.80;;;11.00;60.20;;;;;;5072042;28;20457;-72
2023/12/11 07:07:12;;;;;;;25.50;4.40;;;11.00;58.90;;;;;;5070415;28;20391;-72
2023/12/11 07:09:39;;;;;;;20.80;4.65;;;11.00;58.20;;;;;;5072128;28;20372;-70
2023/12/11 07:12:04;;;;;;;20.85;4.13;;;11.00;58.40;;;;;;5072095;28;20376;-71
2023/12/11 07:14:30;;;;;;;20.88;4.50;;;11.10;57.50;;;;;;5071834;28;20391;-70
2023/12/11 07:16:56;;;;;;;25.97;4.77;;;11.10;56.70;;;;;;5071451;28;20379;-70
2023/12/11 07:19:21;;;;;;;27.30;4.50;;;11.20;56.90;;;;;;5071588;28;20469;-70
2023/12/11 07:21:47;;;;;;;20.27;4.28;;;11.20;55.70;;;;;;5071920;28;20383;-70
2023/12/11 07:24:12;;;;;;;27.00;4.90;;;11.20;54.60;;;;;;5071965;28;20407;-72
2023/12/11 07:26:38;;;;;;;27.60;4.63;;;11.20;54.80;;;;;;5071766;28;20743;-71
2023/12/11 07:29:04;;;;;;;23.02;4.90;;;11.20;54.50;;;;;;5071500;28;20447;-71
2023/12/11 07:31:30;;;;;;;19.35;4.47;;;11.20;53.90;;;;;;5071518;28;20395;-72
2023/12/11 07:33:56;;;;;;;30.48;4.85;;;11.20;53.30;;;;;;5070923;28;20388;-72
2023/12/11 07:36:22;;;;;;;25.20;4.78;;;11.30;53.10;;;;;;5071363;28;20379;-71
2023/12/11 07:38:49;;;;;;;20.73;4.35;;;11.30;52.90;;;;;;5071238;28;20375;-70
2023/12/11 07:41:20;;;;;;;26.10;4.82;;;11.30;53.70;;;;;;5070783;28;20870;-70
2023/12/11 07:43:46;;;;;;;26.08;5.22;;;11.30;53.00;;;;;;5070632;28;20948;-70
2023/12/11 07:46:16;;;;;;;26.25;5.40;;;11.40;53.00;;;;;;5070934;28;20384;-70
2023/12/11 07:48:42;;;;;;;23.15;4.80;;;11.40;51.90;;;;;;5070914;28;20372;-71
2023/12/11 07:51:19;;;;;;;24.30;4.60;;;11.40;52.30;;;;;;5070812;28;20380;-71
2023/12/11 07:53:46;;;;;;;26.98;4.82;;;11.40;52.70;;;;;;5070385;28;20471;-69
2023/12/11 07:56:21;;;;;;;23.93;4.43;;;11.40;53.00;;;;;;5071010;28;20396;-72
2023/12/11 07:58:47;;;;;;;26.53;4.53;;;11.40;52.90;;;;;;5069623;28;20479;-69
2023/12/11 08:01:13;;;;;;;33.28;4.95;;;11.40;52.30;;;;;;5070510;28;20449;-70
2023/12/11 08:03:38;;;;;;;25.63;5.13;;;11.40;53.30;;;;;;5070663;28;20395;-70
2023/12/11 08:06:04;;;;;;;24.57;5.07;;;11.50;52.70;;;;;;5069339;28;20954;-70
2023/12/11 08:08:31;;;;;;;23.33;5.05;;;11.50;52.70;;;;;;5070310;28;20486;-70
2023/12/11 08:10:57;;;;;;;23.10;4.73;;;11.50;52.30;;;;;;5069924;28;20824;-71
2023/12/11 08:13:22;;;;;;;22.08;4.53;;;11.60;51.90;;;;;;5070433;28;20376;-70
2023/12/11 08:15:48;;;;;;;20.35;4.28;;;11.60;52.70;;;;;;5070635;28;20463;-70
2023/12/11 08:18:14;;;;;;;18.60;4.23;;;11.60;52.70;;;;;;5070230;28;20459;-70
2023/12/11 08:20:39;;;;;;;25.30;5.70;;;11.60;52.40;;;;;;5093462;22;20430;-73
2023/12/11 08:23:05;;;;;;;30.30;4.90;;;11.50;53.00;;;;;;5071458;28;20400;-73
2023/12/11 08:25:30;;;;;;;27.80;5.13;;;11.60;52.80;;;;;;5072015;28;20388;-73
2023/12/11 08:27:56;;;;;;;20.47;4.70;;;11.50;54.40;;;;;;5071110;28;20411;-74
2023/12/11 08:30:21;;;;;;;25.65;4.20;;;11.40;55.00;;;;;;5071221;28;20384;-71
2023/12/11 08:32:47;;;;;;;24.88;5.05;;;11.40;57.50;;;;;;5071131;28;20475;-73
2023/12/11 08:35:13;;;;;;;20.33;4.07;;;11.30;58.10;;;;;;5071407;28;20386;-73
2023/12/11 08:37:38;;;;;;;26.13;4.25;;;11.30;59.30;;;;;;5071155;28;20379;-72
2023/12/11 08:40:05;;;;;;;23.60;4.70;;;11.20;59.80;;;;;;5071084;28;20411;-72
2023/12/11 08:42:32;;;;;;;24.45;4.60;;;11.20;61.40;;;;;;5071200;28;20399;-76
2023/12/11 08:44:58;;;;;;;22.58;4.25;;;11.10;62.40;;;;;;5071524;28;20457;-71
2023/12/11 08:47:23;;;;;;;21.92;4.85;;;11.10;61.80;;;;;;5070609;28;20542;-74
2023/12/11 08:49:49;;;;;;;21.98;4.90;;;11.20;62.20;;;;;;5070378;28;20372;-76
2023/12/11 08:52:14;;;;;;;18.60;4.70;;;11.20;62.90;;;;;;5070650;28;20383;-75
2023/12/11 08:54:40;;;;;;;19.90;4.53;;;11.20;62.70;;;;;;5071786;28;20467;-74
2023/12/11 08:57:05;;;;;;;20.90;4.90;;;11.20;62.50;;;;;;5070995;28;20387;-73
2023/12/11 08:59:32;;;;;;;28.00;5.80;;;11.20;63.50;;;;;;5070708;28;20453;-75
2023/12/11 09:01:57;;;;;;;23.85;4.70;;;11.20;64.40;;;;;;5052429;28;20402;-73
2023/12/11 09:04:23;;;;;;;22.67;4.30;;;11.10;64.90;;;;;;5070072;28;20490;-74
2023/12/11 09:06:48;;;;;;;21.93;4.20;;;11.20;63.70;;;;;;5054243;28;20423;-74
2023/12/11 09:09:14;;;;;;;28.80;5.20;;;11.20;62.20;;;;;;5073043;28;20384;-72
2023/12/11 09:11:39;;;;;;;19.63;4.60;;;11.30;62.80;;;;;;5071309;28;20738;-74
2023/12/11 09:14:05;;;;;;;21.95;4.70;;;11.30;60.60;;;;;;5071233;28;20878;-74
2023/12/11 09:16:31;;;;;;;17.45;4.10;;;11.30;60.60;;;;;;5070919;28;20423;-72
2023/12/11 09:18:56;;;;;;;18.17;3.92;;;11.30;60.90;;;;;;5070676;28;20399;-73
2023/12/11 09:21:22;;;;;;;22.25;4.20;;;11.40;59.60;;;;;;5071463;28;20448;-73
2023/12/11 09:23:48;;;;;;;18.17;3.90;;;11.30;60.70;;;;;;5056608;28;20407;-73
2023/12/11 09:26:13;;;;;;;19.50;3.60;;;11.30;60.80;;;;;;5074597;28;20822;-71
2023/12/11 09:28:39;;;;;;;33.05;14.60;;;11.30;61.70;;;;;;5074986;28;20394;-77
2023/12/11 09:31:05;;;;;;;17.15;4.03;;;11.30;62.80;;;;;;5074754;28;20754;-75
2023/12/11 09:33:31;;;;;;;18.33;3.75;;;11.30;62.30;;;;;;5074481;28;20868;-72
2023/12/11 09:35:57;;;;;;;20.80;4.10;;;11.20;64.60;;;;;;5074807;28;20818;-72
2023/12/11 09:38:22;;;;;;;17.30;4.13;;;11.20;68.40;;;;;;5075271;28;20779;-73
2023/12/11 09:40:48;;;;;;;24.53;5.10;;;11.00;71.70;;;;;;5074895;28;20390;-73
2023/12/11 09:43:15;;;;;;;21.43;4.77;;;11.00;73.20;;;;;;5079812;28;20479;-74
2023/12/11 09:45:43;;;;;;;23.38;4.65;;;10.90;74.60;;;;;;5080743;28;20855;-71
2023/12/11 09:48:09;;;;;;;26.02;5.25;;;10.90;75.80;;;;;;5077238;28;20391;-73
2023/12/11 09:50:37;;;;;;;27.63;5.33;;;11.00;73.20;;;;;;5074032;28;20463;-73
2023/12/11 09:53:03;;;;;;;24.05;4.70;;;11.00;70.60;;;;;;5074027;28;20415;-73
2023/12/11 09:55:28;;;;;;;25.77;5.50;;;11.10;69.70;;;;;;5056580;28;20882;-73
2023/12/11 09:57:55;;;;;;;26.17;4.70;;;11.10;68.10;;;;;;5074300;28;20436;-74
2023/12/11 10:00:20;;;;;;;34.53;5.43;;;11.20;66.10;;;;;;5073781;28;20410;-73
2023/12/11 10:02:50;;;;;;;31.38;5.50;;;11.30;65.80;;;;;;5055421;28;20384;-72
2023/12/11 10:05:24;;;;;;;21.90;4.20;;;11.30;65.80;;;;;;5074197;28;20390;-73
2023/12/11 10:07:50;;;;;;;30.85;5.53;;;11.40;64.10;;;;;;5074035;28;20372;-73
2023/12/11 10:10:25;;;;;;;23.50;4.85;;;11.40;63.60;;;;;;5055664;28;20438;-74
2023/12/11 10:12:53;;;;;;;22.65;4.60;;;11.40;61.50;;;;;;5073722;28;20388;-75
2023/12/11 10:15:27;;;;;;;24.40;4.78;;;11.40;59.90;;;;;;5073628;28;20777;-74
2023/12/11 10:18:05;;;;;;;21.55;4.65;;;11.50;60.20;;;;;;5055691;28;20434;-73
2023/12/11 10:20:31;;;;;;;27.35;5.03;;;11.60;59.10;;;;;;5073712;28;20392;-74
2023/12/11 10:22:57;;;;;;;21.42;4.40;;;11.70;59.40;;;;;;5073193;28;20892;-73
2023/12/11 10:25:29;;;;;;;23.43;4.50;;;11.80;58.30;;;;;;5075344;28;20383;-72
2023/12/11 10:28:06;;;;;;;24.65;4.80;;;11.70;57.10;;;;;;5075664;28;20376;-73
2023/12/11 10:30:32;;;;;;;28.92;4.70;;;11.70;58.80;;;;;;5080357;28;20404;-74
2023/12/11 10:33:02;;;;;;;22.95;4.85;;;11.80;57.80;;;;;;5076883;28;20392;-72
2023/12/11 10:35:28;;;;;;;16.75;3.97;;;11.70;56.20;;;;;;5073515;28;20892;-74
2023/12/11 10:38:02;;;;;;;19.75;3.97;;;11.70;56.20;;;;;;5073085;28;20388;-74
2023/12/11 10:40:41;;;;;;;24.63;4.38;;;11.70;58.00;;;;;;5073054;28;20467;-74
2023/12/11 10:43:07;;;;;;;25.83;4.90;;;11.70;57.40;;;;;;5055011;28;20431;-73
2023/12/11 10:45:34;;;;;;;26.60;4.50;;;11.70;57.20;;;;;;5073071;28;20384;-73
2023/12/11 10:48:03;;;;;;;27.73;5.13;;;11.70;56.20;;;;;;5072912;28;20428;-73
2023/12/11 10:50:30;;;;;;;18.42;4.40;;;11.60;56.60;;;;;;5072834;28;20372;-75
2023/12/11 10:52:59;;;;;;;21.08;4.47;;;11.60;57.10;;;;;;5073123;28;20388;-74
2023/12/11 10:55:25;;;;;;;23.85;4.72;;;11.50;57.60;;;;;;5054440;28;20417;-74
2023/12/11 10:57:52;;;;;;;26.90;4.75;;;11.50;58.70;;;;;;5072759;28;20399;-74
2023/12/11 11:00:20;;;;;;;19.08;3.97;;;11.50;58.20;;;;;;5073121;28;20774;-75
2023/12/11 11:02:48;;;;;;;15.47;3.77;;;11.60;58.50;;;;;;5072037;28;20438;-74
2023/12/11 11:05:15;;;;;;;15.70;3.80;;;11.60;57.60;;;;;;5072393;28;20383;-74
2023/12/11 11:08:08;;;;;;;17.05;4.10;;;11.50;58.70;;;;;;5072315;28;20380;-73
2023/12/11 11:10:40;;;;;;;18.33;3.30;;;11.40;61.10;;;;;;5072254;28;20387;-74
2023/12/11 11:13:12;;;;;;;17.80;4.18;;;11.40;62.90;;;;;;5072467;28;20390;-73
2023/12/11 11:15:38;;;;;;;15.30;3.80;;;11.30;64.30;;;;;;5072654;28;20817;-73
2023/12/11 11:18:05;;;;;;;16.37;4.53;;;11.40;63.20;;;;;;5072174;28;20397;-74
2023/12/11 11:20:33;;;;;;;17.08;3.90;;;11.30;61.80;;;;;;5072722;28;21131;-74
2023/12/11 11:23:17;;;;;;;16.92;4.10;;;11.40;62.00;;;;;;5072834;28;20434;-73
2023/12/11 11:25:50;;;;;;;23.27;4.07;;;11.50;59.20;;;;;;5074682;28;20746;-73
2023/12/11 11:28:35;;;;;;;13.48;3.72;;;11.60;57.40;;;;;;5072688;28;20428;-74
2023/12/11 11:31:01;;;;;;;12.55;3.20;;;11.70;54.90;;;;;;5054369;28;20449;-74
2023/12/11 11:33:42;;;;;;;16.40;3.50;;;11.70;55.40;;;;;;5072203;28;20384;-75
2023/12/11 11:36:08;;;;;;;16.30;3.40;;;11.80;53.10;;;;;;5073416;28;20883;-75
2023/12/11 11:39:01;;;;;;;18.37;3.20;;;11.80;53.90;;;;;;5072958;28;20399;-74
2023/12/11 11:41:28;;;;;;;17.27;3.20;;;11.80;54.10;;;;;;5070083;28;20391;-74
2023/12/11 11:43:58;;;;;;;15.87;4.20;;;11.80;53.70;;;;;;5073487;28;20414;-73
2023/12/11 11:46:25;;;;;;;14.18;2.95;;;11.70;54.50;;;;;;5073022;28;20874;-73
2023/12/11 11:48:51;;;;;;;17.85;2.88;;;11.70;54.20;;;;;;5072132;28;20392;-73
2023/12/11 11:51:17;;;;;;;12.95;2.95;;;11.70;54.30;;;;;;5071710;28;20383;-73
2023/12/11 11:53:44;;;;;;;11.38;2.90;;;11.70;55.10;;;;;;5071984;28;20390;-75
2023/12/11 11:56:11;;;;;;;13.75;3.10;;;11.70;54.70;;;;;;5075415;28;20386;-74
2023/12/11 11:58:36;;;;;;;15.52;3.28;;;11.70;52.50;;;;;;5072248;28;20376;-74
2023/12/11 12:01:03;;;;;;;11.88;3.22;;;11.80;52.10;;;;;;5072563;28;20386;-74
2023/12/11 12:03:39;;;;;;;18.40;3.42;;;11.80;52.80;;;;;;5072193;28;20438;-76
2023/12/11 12:06:05;;;;;;;11.93;3.03;;;11.90;51.90;;;;;;5073155;28;20378;-73
2023/12/11 12:08:31;;;;;;;10.50;2.70;;;12.00;51.00;;;;;;5055117;28;20384;-74
2023/12/11 12:10:57;;;;;;;11.17;2.80;;;12.00;50.60;;;;;;5071979;28;20784;-73
2023/12/11 12:13:22;;;;;;;13.20;3.30;;;12.00;50.60;;;;;;5071838;28;20453;-74
2023/12/11 12:15:51;;;;;;;15.50;3.60;;;11.90;52.70;;;;;;5071516;28;20882;-72
2023/12/11 12:18:17;;;;;;;15.07;3.55;;;12.00;52.40;;;;;;5070961;28;20470;-74
2023/12/11 12:20:43;;;;;;;9.10;2.65;;;11.90;52.70;;;;;;5071136;28;20467;-73
2023/12/11 12:23:08;;;;;;;12.93;3.40;;;11.80;52.40;;;;;;5053156;28;20396;-74
2023/12/11 12:25:35;;;;;;;13.53;3.13;;;11.60;52.40;;;;;;5075082;28;20928;-75
2023/12/11 12:28:09;;;;;;;9.88;2.90;;;11.50;53.50;;;;;;5074405;28;20380;-72
2023/12/11 12:30:36;;;;;;;9.15;2.90;;;11.50;54.70;;;;;;5087449;28;20407;-73
2023/12/11 12:33:04;;;;;;;7.63;1.35;;;11.30;54.00;;;;;;5089115;28;20951;-73
2023/12/11 12:35:32;;;;;;;4.13;1.60;;;10.50;63.90;;;;;;5090017;28;20473;-74